createdAt,value
2022-12-26T00:01:01.287Z,11.62
2022-12-26T00:03:30.516Z,11.63
2022-12-26T00:05:59.521Z,11.63
2022-12-26T00:08:27.099Z,11.61
2022-12-26T00:10:54.672Z,11.57
2022-12-26T00:13:40.431Z,11.54
2022-12-26T00:16:10.089Z,11.59
2022-12-26T00:18:37.736Z,11.62
2022-12-26T00:21:07.160Z,11.56
2022-12-26T00:23:34.942Z,11.54
2022-12-26T00:26:06.483Z,11.51
2022-12-26T00:28:34.251Z,11.50
2022-12-26T00:31:04.825Z,11.53
2022-12-26T00:33:32.499Z,11.57
2022-12-26T00:36:03.165Z,11.72
2022-12-26T00:38:32.541Z,11.65
2022-12-26T00:41:00.104Z,11.62
2022-12-26T00:43:27.751Z,11.68
2022-12-26T00:45:55.424Z,11.64
2022-12-26T00:48:23.004Z,11.58
2022-12-26T00:50:50.636Z,11.55
2022-12-26T00:53:18.694Z,11.62
2022-12-26T00:55:47.797Z,11.63
2022-12-26T00:58:15.392Z,11.52
2022-12-26T01:00:43.113Z,11.59
2022-12-26T01:03:12.178Z,11.53
2022-12-26T01:05:42.065Z,11.54
2022-12-26T01:08:21.428Z,11.55
2022-12-26T01:10:53.203Z,11.54
2022-12-26T01:13:21.788Z,11.59
2022-12-26T01:15:50.540Z,11.58
2022-12-26T01:18:18.166Z,11.55
2022-12-26T01:20:45.699Z,11.58
2022-12-26T01:23:13.251Z,11.52
2022-12-26T01:26:17.690Z,11.54
2022-12-26T01:28:30.284Z,11.66
2022-12-26T01:31:02.591Z,11.65
2022-12-26T01:33:30.538Z,11.65
2022-12-26T01:35:58.489Z,11.73
2022-12-26T01:38:26.022Z,11.75
2022-12-26T01:41:14.385Z,11.77
2022-12-26T01:43:56.004Z,11.78
2022-12-26T01:46:29.360Z,11.68
2022-12-26T01:49:00.617Z,11.66
2022-12-26T01:51:31.592Z,11.64
2022-12-26T01:54:37.245Z,11.60
2022-12-26T01:56:50.230Z,11.62
2022-12-26T01:59:23.311Z,11.64
2022-12-26T02:01:54.484Z,11.72
2022-12-26T02:04:48.647Z,11.73
2022-12-26T02:07:16.498Z,11.77
2022-12-26T02:09:44.147Z,11.78
2022-12-26T02:12:34.529Z,11.77
2022-12-26T02:15:09.851Z,11.75
2022-12-26T02:17:38.696Z,11.73
2022-12-26T02:20:16.500Z,11.75
2022-12-26T02:23:16.022Z,11.73
2022-12-26T02:26:04.251Z,11.66
2022-12-26T02:29:05.265Z,11.69
2022-12-26T02:31:43.456Z,11.80
2022-12-26T02:34:16.947Z,11.72
2022-12-26T02:37:05.880Z,11.74
2022-12-26T02:39:47.690Z,11.74
2022-12-26T02:42:25.559Z,11.85
2022-12-26T02:45:15.534Z,11.83
2022-12-26T02:47:52.239Z,11.81
2022-12-26T02:50:50.158Z,11.82
2022-12-26T02:53:39.533Z,11.68
2022-12-26T02:56:31.171Z,11.69
2022-12-26T02:59:20.268Z,11.63
2022-12-26T03:02:36.634Z,11.67
2022-12-26T03:05:29.390Z,11.70
2022-12-26T03:08:16.408Z,11.78
2022-12-26T03:11:01.857Z,11.80
2022-12-26T03:13:36.696Z,11.71
2022-12-26T03:16:26.522Z,11.72
2022-12-26T03:19:00.634Z,11.75
2022-12-26T03:21:34.046Z,11.78
2022-12-26T03:24:01.718Z,11.76
2022-12-26T03:26:42.326Z,11.81
2022-12-26T03:29:29.959Z,11.82
2022-12-26T03:31:58.547Z,11.78
2022-12-26T03:34:26.125Z,11.81
2022-12-26T03:37:48.380Z,11.77
2022-12-26T03:41:04.118Z,11.79
2022-12-26T03:44:05.061Z,11.81
2022-12-26T03:46:59.457Z,11.73
2022-12-26T03:49:49.238Z,11.78
2022-12-26T03:52:43.028Z,11.75
2022-12-26T03:55:34.372Z,11.85
2022-12-26T03:58:25.947Z,11.82
2022-12-26T04:01:14.890Z,11.80
2022-12-26T04:04:02.381Z,11.76
2022-12-26T04:06:54.110Z,11.78
2022-12-26T04:09:44.707Z,11.79
2022-12-26T04:12:36.377Z,11.83
2022-12-26T04:15:30.817Z,11.73
2022-12-26T04:18:22.839Z,11.74
2022-12-26T04:21:29.305Z,11.68
2022-12-26T04:24:18.716Z,11.52
2022-12-26T04:27:08.534Z,11.37
2022-12-26T04:29:54.226Z,11.33
2022-12-26T04:32:48.535Z,11.24
2022-12-26T04:35:39.239Z,11.23
2022-12-26T04:38:26.323Z,11.40
2022-12-26T04:41:17.925Z,11.39
2022-12-26T04:44:06.245Z,11.40
2022-12-26T04:46:35.263Z,11.46
2022-12-26T04:49:24.848Z,11.49
2022-12-26T04:51:52.713Z,11.48
2022-12-26T04:54:20.301Z,11.57
2022-12-26T04:56:47.824Z,11.63
2022-12-26T04:59:16.382Z,11.57
2022-12-26T05:02:01.909Z,11.58
2022-12-26T05:04:48.528Z,11.50
2022-12-26T05:07:38.355Z,11.54
2022-12-26T05:10:08.771Z,11.55
2022-12-26T05:12:36.468Z,11.53
2022-12-26T05:15:04.174Z,11.54
2022-12-26T05:17:49.118Z,11.54
2022-12-26T05:20:43.945Z,11.51
2022-12-26T05:23:36.542Z,11.50
2022-12-26T05:26:23.303Z,11.53
2022-12-26T05:28:56.892Z,11.51
2022-12-26T05:31:26.264Z,11.53
2022-12-26T05:34:08.392Z,11.59
2022-12-26T05:36:40.220Z,11.71
2022-12-26T05:39:08.915Z,11.87
2022-12-26T05:41:36.980Z,11.84
2022-12-26T05:44:04.942Z,11.82
2022-12-26T05:46:32.593Z,11.82
2022-12-26T05:49:00.278Z,11.90
2022-12-26T05:51:28.335Z,11.88
2022-12-26T05:53:58.241Z,11.93
2022-12-26T05:56:25.783Z,12.03
2022-12-26T05:58:57.793Z,12.01
2022-12-26T06:01:26.724Z,12.12
2022-12-26T06:03:56.475Z,12.13
2022-12-26T06:06:25.858Z,12.13
2022-12-26T06:08:54.707Z,12.12
2022-12-26T06:11:26.471Z,12.16
2022-12-26T06:13:54.958Z,12.10
2022-12-26T06:16:22.644Z,12.13
2022-12-26T06:18:50.439Z,12.09
2022-12-26T06:21:20.083Z,12.14
2022-12-26T06:23:48.542Z,12.08
2022-12-26T06:26:16.645Z,12.13
2022-12-26T06:28:47.441Z,12.14
2022-12-26T06:31:18.063Z,12.18
2022-12-26T06:33:45.729Z,12.13
2022-12-26T06:36:15.023Z,12.07
2022-12-26T06:38:43.485Z,12.14
2022-12-26T06:41:13.967Z,12.10
2022-12-26T06:43:41.798Z,12.18
2022-12-26T06:46:14.860Z,12.15
2022-12-26T06:48:43.666Z,12.16
2022-12-26T06:51:13.263Z,12.09
2022-12-26T06:53:40.912Z,12.07
2022-12-26T06:56:09.649Z,12.08
2022-12-26T06:58:37.379Z,12.09
2022-12-26T07:01:05.980Z,12.13
2022-12-26T07:03:35.273Z,12.01
2022-12-26T07:06:04.933Z,12.05
2022-12-26T07:08:32.490Z,11.98
2022-12-26T07:11:00.172Z,11.99
2022-12-26T07:13:27.736Z,11.99
2022-12-26T07:15:55.346Z,12.01
2022-12-26T07:18:22.848Z,12.03
2022-12-26T07:20:51.674Z,12.04
2022-12-26T07:23:19.323Z,11.98
2022-12-26T07:25:48.186Z,12.02
2022-12-26T07:28:15.967Z,12.03
2022-12-26T07:30:47.845Z,12.08
2022-12-26T07:33:15.702Z,12.06
2022-12-26T07:35:43.611Z,12.02
2022-12-26T07:38:13.457Z,12.10
2022-12-26T07:40:41.361Z,12.08
2022-12-26T07:43:08.885Z,12.16
2022-12-26T07:45:41.835Z,12.16
2022-12-26T07:48:11.017Z,12.04
2022-12-26T07:50:38.584Z,12.00
2022-12-26T07:53:06.100Z,11.93
2022-12-26T07:55:34.903Z,11.87
2022-12-26T07:58:02.434Z,11.80
2022-12-26T08:00:29.982Z,11.77
2022-12-26T08:03:04.681Z,11.69
2022-12-26T08:05:34.566Z,11.58
2022-12-26T08:08:02.234Z,11.61
2022-12-26T08:10:29.873Z,11.52
2022-12-26T08:13:00.050Z,11.63
2022-12-26T08:15:27.785Z,11.63
2022-12-26T08:17:55.416Z,11.51
2022-12-26T08:20:23.834Z,11.40
2022-12-26T08:22:51.393Z,11.35
2022-12-26T08:25:21.832Z,11.45
2022-12-26T08:27:50.911Z,11.42
2022-12-26T08:30:19.774Z,11.47
2022-12-26T08:32:47.326Z,11.40
2022-12-26T08:35:14.886Z,11.38
2022-12-26T08:37:42.393Z,11.34
2022-12-26T08:40:11.219Z,11.29
2022-12-26T08:42:56.243Z,11.27
2022-12-26T08:45:29.257Z,11.37
2022-12-26T08:47:57.915Z,11.32
2022-12-26T08:50:25.412Z,11.43
2022-12-26T08:52:55.298Z,11.40
2022-12-26T08:55:24.220Z,11.48
2022-12-26T08:57:51.776Z,11.48
2022-12-26T09:00:21.970Z,11.39
2022-12-26T09:02:50.923Z,11.29
2022-12-26T09:05:18.590Z,11.40
2022-12-26T09:07:46.571Z,11.45
2022-12-26T09:10:14.134Z,11.53
2022-12-26T09:12:41.659Z,11.53
2022-12-26T09:15:09.760Z,11.48
2022-12-26T09:17:37.359Z,11.46
2022-12-26T09:20:07.692Z,11.64
2022-12-26T09:22:54.396Z,11.75
2022-12-26T09:25:24.278Z,11.86
2022-12-26T09:27:58.751Z,11.92
2022-12-26T09:30:27.499Z,11.85
2022-12-26T09:32:55.415Z,11.96
2022-12-26T09:35:24.271Z,11.91
2022-12-26T09:37:51.793Z,11.81
2022-12-26T09:40:25.033Z,11.89
2022-12-26T09:43:05.546Z,11.94
2022-12-26T09:45:46.368Z,11.99
2022-12-26T09:48:20.667Z,12.05
2022-12-26T09:50:52.946Z,11.97
2022-12-26T09:53:30.021Z,11.84
2022-12-26T09:56:00.573Z,11.84
2022-12-26T09:58:30.881Z,11.81
2022-12-26T10:01:04.151Z,11.82
2022-12-26T10:03:38.625Z,11.83
2022-12-26T10:06:14.546Z,11.90
2022-12-26T10:08:54.184Z,11.94
2022-12-26T10:11:31.169Z,11.92
2022-12-26T10:14:05.206Z,11.82
2022-12-26T10:16:50.186Z,11.73
2022-12-26T10:19:32.800Z,11.73
2022-12-26T10:22:13.472Z,11.67
2022-12-26T10:24:43.633Z,11.70
2022-12-26T10:27:15.076Z,11.80
2022-12-26T10:29:46.936Z,11.83
2022-12-26T10:32:21.673Z,11.94
2022-12-26T10:34:52.815Z,12.00
2022-12-26T10:37:28.486Z,11.97
2022-12-26T10:40:00.044Z,11.97
2022-12-26T10:42:33.828Z,11.93
2022-12-26T10:45:01.857Z,11.93
2022-12-26T10:47:34.541Z,11.84
2022-12-26T10:50:02.188Z,11.98
2022-12-26T10:52:35.022Z,12.01
2022-12-26T10:55:29.471Z,12.02
2022-12-26T10:57:53.266Z,11.92
2022-12-26T11:00:23.578Z,11.94
2022-12-26T11:03:04.622Z,11.91
2022-12-26T11:05:57.461Z,11.88
2022-12-26T11:08:26.478Z,11.95
2022-12-26T11:11:05.577Z,12.04
2022-12-26T11:13:38.434Z,12.15
2022-12-26T11:16:07.935Z,12.29
2022-12-26T11:18:40.303Z,12.30
2022-12-26T11:21:20.675Z,12.29
2022-12-26T11:23:52.314Z,12.46
2022-12-26T11:26:23.763Z,12.31
2022-12-26T11:29:07.444Z,12.43
2022-12-26T11:31:35.364Z,12.42
2022-12-26T11:34:09.227Z,12.42
2022-12-26T11:36:40.372Z,12.40
2022-12-26T11:39:25.123Z,12.33
2022-12-26T11:41:54.003Z,12.29
2022-12-26T11:44:26.894Z,12.32
2022-12-26T11:47:00.042Z,12.38
2022-12-26T11:49:33.063Z,12.23
2022-12-26T11:52:02.853Z,12.16
2022-12-26T11:54:35.967Z,12.23
2022-12-26T11:57:12.350Z,12.36
2022-12-26T11:59:46.035Z,12.41
2022-12-26T12:02:18.567Z,12.41
2022-12-26T12:04:47.635Z,12.33
2022-12-26T12:07:28.001Z,12.46
2022-12-26T12:10:04.120Z,12.45
2022-12-26T12:12:38.423Z,12.45
2022-12-26T12:15:17.453Z,12.52
2022-12-26T12:17:52.780Z,12.46
2022-12-26T12:20:32.102Z,12.48
2022-12-26T12:23:23.234Z,12.51
2022-12-26T12:26:02.253Z,12.56
2022-12-26T12:28:51.656Z,12.61
2022-12-26T12:31:27.977Z,12.44
2022-12-26T12:34:07.117Z,12.39
2022-12-26T12:36:55.968Z,12.45
2022-12-26T12:39:38.319Z,12.42
2022-12-26T12:42:28.897Z,12.37
2022-12-26T12:45:10.431Z,12.53
2022-12-26T12:47:48.080Z,12.40
2022-12-26T12:50:24.748Z,12.46
2022-12-26T12:53:01.724Z,12.39
2022-12-26T12:56:00.139Z,12.38
2022-12-26T12:58:38.264Z,12.30
2022-12-26T13:01:13.187Z,12.25
2022-12-26T13:03:46.576Z,12.09
2022-12-26T13:06:18.979Z,12.13
2022-12-26T13:08:50.152Z,12.07
2022-12-26T13:11:23.498Z,12.07
2022-12-26T13:13:57.111Z,12.07
2022-12-26T13:16:28.357Z,12.05
2022-12-26T13:18:59.846Z,12.00
2022-12-26T13:21:30.120Z,11.99
2022-12-26T13:24:21.196Z,12.04
2022-12-26T13:26:54.383Z,12.08
2022-12-26T13:29:34.651Z,12.20
2022-12-26T13:32:04.452Z,12.33
2022-12-26T13:34:32.741Z,12.34
2022-12-26T13:37:01.336Z,12.41
2022-12-26T13:39:41.287Z,12.43
2022-12-26T13:42:50.694Z,12.40
2022-12-26T13:45:58.332Z,12.32
2022-12-26T13:48:59.634Z,12.23
2022-12-26T13:51:48.603Z,12.24
2022-12-26T13:54:17.069Z,12.18
2022-12-26T13:57:12.567Z,12.20
2022-12-26T13:59:49.889Z,12.28
2022-12-26T14:03:15.999Z,12.19
2022-12-26T14:05:38.031Z,12.09
2022-12-26T14:08:15.542Z,12.06
2022-12-26T14:10:56.791Z,12.06
2022-12-26T14:13:43.342Z,12.00
2022-12-26T14:16:16.952Z,11.62
2022-12-26T14:18:51.602Z,11.28
2022-12-26T14:21:40.809Z,10.88
2022-12-26T14:24:25.776Z,10.58
2022-12-26T14:27:00.872Z,10.46
2022-12-26T14:29:33.650Z,10.27
2022-12-26T14:32:13.941Z,10.21
2022-12-26T14:34:52.641Z,10.23
2022-12-26T14:37:30.988Z,10.29
2022-12-26T14:40:31.065Z,10.43
2022-12-26T14:43:29.016Z,10.60
2022-12-26T14:45:57.592Z,10.86
2022-12-26T14:48:56.679Z,11.08
2022-12-26T14:51:36.677Z,11.17
2022-12-26T14:54:36.389Z,10.91
2022-12-26T14:57:42.003Z,10.83
2022-12-26T15:00:32.715Z,10.79
2022-12-26T15:03:33.694Z,10.87
2022-12-26T15:06:25.895Z,10.72
2022-12-26T15:09:11.446Z,10.67
2022-12-26T15:12:00.332Z,10.62
2022-12-26T15:14:58.330Z,10.58
2022-12-26T15:17:37.473Z,10.53
2022-12-26T15:20:42.406Z,10.58
2022-12-26T15:23:42.543Z,10.60
2022-12-26T15:26:35.210Z,10.61
2022-12-26T15:29:26.644Z,10.70
2022-12-26T15:32:05.273Z,10.70
2022-12-26T15:34:58.465Z,10.68
2022-12-26T15:37:40.845Z,10.42
2022-12-26T15:40:15.721Z,10.42
2022-12-26T15:42:53.364Z,10.36
2022-12-26T15:45:36.382Z,10.38
2022-12-26T15:48:11.271Z,10.30
2022-12-26T15:50:50.386Z,10.29
2022-12-26T15:53:28.684Z,10.28
2022-12-26T15:56:12.951Z,10.17
2022-12-26T15:59:03.062Z,10.19
2022-12-26T16:01:39.461Z,10.15
2022-12-26T16:04:13.583Z,10.11
2022-12-26T16:06:58.265Z,10.07
2022-12-26T16:09:39.914Z,10.07
2022-12-26T16:12:21.966Z,10.12
2022-12-26T16:14:50.280Z,10.06
2022-12-26T16:17:22.778Z,9.93
2022-12-26T16:19:52.414Z,10.04
2022-12-26T16:22:44.322Z,10.01
2022-12-26T16:25:14.062Z,9.98
2022-12-26T16:27:42.979Z,10.20
2022-12-26T16:30:17.341Z,10.17
2022-12-26T16:32:47.329Z,10.16
2022-12-26T16:35:21.297Z,10.09
2022-12-26T16:37:50.766Z,10.21
2022-12-26T16:40:23.804Z,10.17
2022-12-26T16:43:01.450Z,10.22
2022-12-26T16:45:33.909Z,10.27
2022-12-26T16:48:08.595Z,10.18
2022-12-26T16:50:45.957Z,10.12
2022-12-26T16:53:15.475Z,10.03
2022-12-26T16:55:45.722Z,9.95
2022-12-26T16:58:17.338Z,9.94
2022-12-26T17:00:51.518Z,9.90
2022-12-26T17:03:28.995Z,9.88
2022-12-26T17:05:57.155Z,9.86
2022-12-26T17:08:27.130Z,9.82
2022-12-26T17:10:54.892Z,9.91
2022-12-26T17:13:26.746Z,9.89
2022-12-26T17:15:57.838Z,9.78
2022-12-26T17:18:48.027Z,9.85
2022-12-26T17:21:20.188Z,9.89
2022-12-26T17:24:03.275Z,9.84
2022-12-26T17:26:31.669Z,9.76
2022-12-26T17:28:59.309Z,9.65
2022-12-26T17:31:34.719Z,9.53
2022-12-26T17:34:09.051Z,9.55
2022-12-26T17:39:27.491Z,9.57
2022-12-26T17:41:58.236Z,9.58
2022-12-26T17:44:39.777Z,9.33
2022-12-26T17:47:16.944Z,9.48
2022-12-26T17:49:45.949Z,9.40
2022-12-26T17:52:16.485Z,9.32
2022-12-26T17:54:44.550Z,9.24
2022-12-26T17:57:19.288Z,9.20
2022-12-26T17:59:47.087Z,9.16
2022-12-26T18:02:14.915Z,9.15
2022-12-26T18:04:42.759Z,9.06
2022-12-26T18:07:16.457Z,9.16
2022-12-26T18:09:45.055Z,9.27
2022-12-26T18:12:13.510Z,9.24
2022-12-26T18:14:41.343Z,9.29
2022-12-26T18:17:12.052Z,9.33
2022-12-26T18:19:39.737Z,9.38
2022-12-26T18:22:14.461Z,9.35
2022-12-26T18:24:42.713Z,9.48
2022-12-26T18:27:18.245Z,9.38
2022-12-26T18:29:46.267Z,9.32
2022-12-26T18:32:23.352Z,9.34
2022-12-26T18:34:51.069Z,9.28
2022-12-26T18:37:20.085Z,9.21
2022-12-26T18:39:47.665Z,9.20
2022-12-26T18:42:17.040Z,9.26
2022-12-26T18:44:45.251Z,9.23
2022-12-26T18:47:14.167Z,9.31
2022-12-26T18:49:42.231Z,9.20
2022-12-26T18:52:10.503Z,9.02
2022-12-26T18:54:39.610Z,9.14
2022-12-26T18:57:08.355Z,9.09
2022-12-26T18:59:36.046Z,9.01
2022-12-26T19:02:03.663Z,8.99
2022-12-26T19:04:31.385Z,8.70
2022-12-26T19:06:58.923Z,8.46
2022-12-26T19:09:26.579Z,8.43
2022-12-26T19:11:55.482Z,8.35
2022-12-26T19:14:23.175Z,8.48
2022-12-26T19:16:50.788Z,8.54
2022-12-26T19:19:18.375Z,8.47
2022-12-26T19:21:45.880Z,8.51
2022-12-26T19:24:13.425Z,8.74
2022-12-26T19:26:40.982Z,8.77
2022-12-26T19:29:10.430Z,8.65
2022-12-26T19:31:38.216Z,8.68
2022-12-26T19:34:06.284Z,8.58
2022-12-26T19:36:33.886Z,8.52
2022-12-26T19:39:01.464Z,8.42
2022-12-26T19:41:29.145Z,8.34
2022-12-26T19:43:57.331Z,8.13
2022-12-26T19:46:27.382Z,8.00
2022-12-26T19:48:55.621Z,8.03
2022-12-26T19:51:23.629Z,7.99
2022-12-26T19:53:51.454Z,8.17
2022-12-26T19:56:21.271Z,8.20
2022-12-26T19:58:55.915Z,8.22
2022-12-26T20:01:27.529Z,8.10
2022-12-26T20:03:56.071Z,8.34
2022-12-26T20:06:26.335Z,8.40
2022-12-26T20:08:58.132Z,8.28
2022-12-26T20:11:28.851Z,8.43
2022-12-26T20:13:56.850Z,8.45
2022-12-26T20:17:03.956Z,8.26
2022-12-26T20:19:15.133Z,8.25
2022-12-26T20:21:42.770Z,8.30
2022-12-26T20:24:12.376Z,8.21
2022-12-26T20:26:41.114Z,8.18
2022-12-26T20:29:09.248Z,8.07
2022-12-26T20:31:41.179Z,8.14
2022-12-26T20:34:08.931Z,7.99
2022-12-26T20:36:37.992Z,8.04
2022-12-26T20:39:08.032Z,8.21
2022-12-26T20:41:35.886Z,8.10
2022-12-26T20:44:03.533Z,7.99
2022-12-26T20:46:37.270Z,7.99
2022-12-26T20:49:06.317Z,7.93
2022-12-26T20:51:38.144Z,7.87
2022-12-26T20:54:06.901Z,7.79
2022-12-26T20:56:35.019Z,7.75
2022-12-26T20:59:03.171Z,7.83
2022-12-26T21:01:31.291Z,7.86
2022-12-26T21:03:59.181Z,7.61
2022-12-26T21:06:32.136Z,7.56
2022-12-26T21:08:59.822Z,7.44
2022-12-26T21:11:29.323Z,7.33
2022-12-26T21:13:58.945Z,7.16
2022-12-26T21:16:29.171Z,7.16
2022-12-26T21:18:57.814Z,7.18
2022-12-26T21:21:26.920Z,7.01
2022-12-26T21:23:58.523Z,6.97
2022-12-26T21:26:26.823Z,6.97
2022-12-26T21:28:58.120Z,6.99
2022-12-26T21:31:25.670Z,6.99
2022-12-26T21:33:55.815Z,7.03
2022-12-26T21:36:23.746Z,6.88
2022-12-26T21:38:52.809Z,6.75
2022-12-26T21:41:22.285Z,6.72
2022-12-26T21:43:50.145Z,6.65
2022-12-26T21:46:19.999Z,6.56
2022-12-26T21:48:49.955Z,6.55
2022-12-26T21:51:19.059Z,6.46
2022-12-26T21:53:47.754Z,6.45
2022-12-26T21:56:16.147Z,6.40
2022-12-26T21:59:03.538Z,6.29
2022-12-26T22:01:31.757Z,6.20
2022-12-26T22:04:17.213Z,6.19
2022-12-26T22:06:45.055Z,6.14
2022-12-26T22:09:12.876Z,6.25
2022-12-26T22:11:57.981Z,6.20
2022-12-26T22:14:26.875Z,6.15
2022-12-26T22:16:55.242Z,6.13
2022-12-26T22:19:24.601Z,6.22
2022-12-26T22:21:52.271Z,6.42
2022-12-26T22:24:21.651Z,6.62
2022-12-26T22:26:49.710Z,6.61
2022-12-26T22:29:17.465Z,6.53
2022-12-26T22:31:46.393Z,6.63
2022-12-26T22:34:16.290Z,6.62
2022-12-26T22:36:44.274Z,6.55
2022-12-26T22:39:14.257Z,6.43
2022-12-26T22:41:42.117Z,6.33
2022-12-26T22:44:09.846Z,6.36
2022-12-26T22:46:37.736Z,6.40
2022-12-26T22:49:06.969Z,6.16
2022-12-26T22:51:34.854Z,6.13
2022-12-26T22:54:03.132Z,5.97
2022-12-26T22:56:31.379Z,5.98
2022-12-26T22:59:00.942Z,6.05
2022-12-26T23:01:28.734Z,6.00
2022-12-26T23:03:56.899Z,5.88
2022-12-26T23:06:28.599Z,5.96
2022-12-26T23:08:58.735Z,5.80
2022-12-26T23:11:34.465Z,5.86
2022-12-26T23:14:04.732Z,5.85
2022-12-26T23:16:38.018Z,5.65
2022-12-26T23:19:31.065Z,5.69
2022-12-26T23:22:01.774Z,5.75
2022-12-26T23:24:31.822Z,5.72
2022-12-26T23:27:21.900Z,5.70
2022-12-26T23:30:07.586Z,5.74
2022-12-26T23:32:36.042Z,5.62
2022-12-26T23:35:03.964Z,5.63
2022-12-26T23:37:32.851Z,5.46
2022-12-26T23:40:00.519Z,5.36
2022-12-26T23:42:28.180Z,5.29
2022-12-26T23:44:55.837Z,5.27
2022-12-26T23:47:23.359Z,5.46
2022-12-26T23:49:50.974Z,5.36
2022-12-26T23:52:18.527Z,5.43
2022-12-26T23:54:47.469Z,5.32
2022-12-26T23:57:15.040Z,5.35
2022-12-26T23:59:42.536Z,5.27
